createdAt,value
2018-01-30T00:00:50.257Z,56.80
2018-01-30T00:03:17.385Z,56.50
2018-01-30T00:05:45.428Z,56.50
2018-01-30T00:08:14.228Z,57.00
2018-01-30T00:10:42.133Z,56.90
2018-01-30T00:13:10.053Z,56.90
2018-01-30T00:15:37.958Z,56.70
2018-01-30T00:18:05.888Z,56.70
2018-01-30T00:20:33.880Z,56.80
2018-01-30T00:23:01.009Z,56.60
2018-01-30T00:25:28.992Z,56.60
2018-01-30T00:27:56.894Z,56.70
2018-01-30T00:30:24.936Z,56.70
2018-01-30T00:32:52.836Z,56.60
2018-01-30T00:35:20.568Z,56.50
2018-01-30T00:37:48.462Z,56.70
2018-01-30T00:40:16.409Z,56.70
2018-01-30T00:42:43.562Z,56.60
2018-01-30T00:45:10.688Z,56.60
2018-01-30T00:47:37.824Z,56.60
2018-01-30T00:50:05.010Z,56.40
2018-01-30T00:52:32.949Z,56.30
2018-01-30T00:55:00.085Z,56.30
2018-01-30T00:57:27.214Z,56.40
2018-01-30T00:59:54.432Z,56.30
2018-01-30T01:02:22.404Z,56.30
2018-01-30T01:04:51.094Z,56.40
2018-01-30T01:07:19.161Z,56.40
2018-01-30T01:09:47.077Z,56.30
2018-01-30T01:12:15.178Z,56.20
2018-01-30T01:14:42.382Z,56.30
2018-01-30T01:17:09.510Z,56.10
2018-01-30T01:19:36.641Z,56.30
2018-01-30T01:22:05.324Z,56.10
2018-01-30T01:24:33.258Z,56.20
2018-01-30T01:27:00.465Z,56.20
2018-01-30T01:29:28.361Z,56.20
2018-01-30T01:31:56.395Z,56.10
2018-01-30T01:34:24.290Z,56.20
2018-01-30T01:36:51.424Z,56.00
2018-01-30T01:39:20.093Z,55.70
2018-01-30T01:41:47.989Z,55.70
2018-01-30T01:44:15.112Z,55.50
2018-01-30T01:46:43.051Z,55.50
2018-01-30T01:49:10.943Z,55.50
2018-01-30T01:51:39.043Z,55.50
2018-01-30T01:54:07.069Z,55.60
2018-01-30T01:56:34.255Z,55.50
2018-01-30T01:59:02.165Z,55.60
2018-01-30T02:01:29.313Z,55.50
2018-01-30T02:03:56.450Z,55.50
2018-01-30T02:06:23.586Z,55.50
2018-01-30T02:08:50.721Z,55.70
2018-01-30T02:11:18.632Z,55.70
2018-01-30T02:13:45.772Z,55.60
2018-01-30T02:16:12.903Z,55.40
2018-01-30T02:18:40.041Z,55.60
2018-01-30T02:21:07.973Z,55.60
2018-01-30T02:23:35.108Z,55.60
2018-01-30T02:26:02.246Z,55.90
2018-01-30T02:28:29.384Z,55.70
2018-01-30T02:30:56.557Z,55.90
2018-01-30T02:33:23.692Z,55.90
2018-01-30T02:35:50.865Z,55.90
2018-01-30T02:38:17.999Z,55.90
2018-01-30T02:40:45.130Z,55.90
2018-01-30T02:43:12.262Z,56.00
2018-01-30T02:45:40.167Z,56.60
2018-01-30T02:48:07.298Z,55.90
2018-01-30T02:50:34.433Z,56.00
2018-01-30T02:53:02.422Z,56.50
2018-01-30T02:55:29.569Z,55.80
2018-01-30T02:57:57.469Z,55.80
2018-01-30T03:00:24.603Z,55.80
2018-01-30T03:02:51.744Z,55.80
2018-01-30T03:05:18.877Z,55.70
2018-01-30T03:07:46.772Z,55.80
2018-01-30T03:10:13.909Z,55.80
2018-01-30T03:12:41.042Z,55.90
2018-01-30T03:15:08.961Z,56.00
2018-01-30T03:17:36.100Z,56.00
2018-01-30T03:20:03.233Z,56.00
2018-01-30T03:22:30.364Z,56.00
2018-01-30T03:24:58.261Z,55.90
2018-01-30T03:27:25.393Z,55.90
2018-01-30T03:29:53.292Z,55.70
2018-01-30T03:32:20.422Z,55.70
2018-01-30T03:34:47.549Z,55.90
2018-01-30T03:37:15.447Z,56.40
2018-01-30T03:39:42.578Z,55.90
2018-01-30T03:42:10.479Z,56.00
2018-01-30T03:44:37.624Z,55.90
2018-01-30T03:47:04.760Z,55.90
2018-01-30T03:49:31.884Z,55.90
2018-01-30T03:51:59.785Z,55.50
2018-01-30T03:54:26.949Z,55.80
2018-01-30T03:56:54.089Z,55.90
2018-01-30T03:59:21.261Z,55.80
2018-01-30T04:01:48.398Z,55.60
2018-01-30T04:04:15.533Z,55.20
2018-01-30T04:06:42.669Z,55.10
2018-01-30T04:09:10.573Z,55.00
2018-01-30T04:11:37.700Z,55.00
2018-01-30T04:14:04.837Z,54.90
2018-01-30T04:16:32.741Z,54.90
2018-01-30T04:18:59.881Z,54.90
2018-01-30T04:21:27.044Z,54.90
2018-01-30T04:23:54.177Z,55.00
2018-01-30T04:26:21.305Z,55.10
2018-01-30T04:28:49.202Z,55.10
2018-01-30T04:31:16.332Z,55.10
2018-01-30T04:33:44.230Z,55.10
2018-01-30T04:36:11.356Z,55.10
2018-01-30T04:38:39.252Z,55.10
2018-01-30T04:41:06.425Z,55.10
2018-01-30T04:43:33.560Z,54.90
2018-01-30T04:46:00.701Z,55.00
2018-01-30T04:48:27.873Z,55.20
2018-01-30T04:50:55.010Z,55.30
2018-01-30T04:53:22.148Z,55.20
2018-01-30T04:55:49.281Z,55.10
2018-01-30T04:58:16.413Z,55.00
2018-01-30T05:00:44.319Z,56.00
2018-01-30T05:03:11.448Z,55.30
2018-01-30T05:05:39.343Z,55.30
2018-01-30T05:08:06.477Z,55.30
2018-01-30T05:10:33.618Z,55.40
2018-01-30T05:13:00.748Z,55.60
2018-01-30T05:15:28.671Z,55.60
2018-01-30T05:17:55.802Z,55.40
2018-01-30T05:20:22.944Z,55.40
2018-01-30T05:22:50.073Z,55.40
2018-01-30T05:25:17.977Z,55.20
2018-01-30T05:27:45.163Z,55.20
2018-01-30T05:30:12.297Z,55.30
2018-01-30T05:32:39.441Z,55.40
2018-01-30T05:35:06.573Z,55.20
2018-01-30T05:37:33.710Z,55.30
2018-01-30T05:40:00.840Z,55.40
2018-01-30T05:42:28.738Z,55.20
2018-01-30T05:44:55.869Z,55.20
2018-01-30T05:47:23.800Z,55.10
2018-01-30T05:49:50.940Z,55.00
2018-01-30T05:52:18.080Z,55.20
2018-01-30T05:54:45.213Z,55.20
2018-01-30T05:57:12.349Z,55.30
2018-01-30T05:59:40.550Z,54.90
2018-01-30T06:02:07.690Z,54.90
2018-01-30T06:04:34.870Z,55.10
2018-01-30T06:07:02.054Z,54.80
2018-01-30T06:09:29.180Z,54.90
2018-01-30T06:11:56.317Z,54.80
2018-01-30T06:14:23.444Z,54.70
2018-01-30T06:16:50.578Z,54.80
2018-01-30T06:19:18.477Z,54.70
2018-01-30T06:21:45.614Z,54.70
2018-01-30T06:24:13.540Z,54.30
2018-01-30T06:26:40.676Z,54.30
2018-01-30T06:29:07.809Z,54.00
2018-01-30T06:31:34.942Z,54.00
2018-01-30T06:34:02.117Z,54.10
2018-01-30T06:36:29.249Z,54.00
2018-01-30T06:38:56.386Z,54.20
2018-01-30T06:41:23.525Z,54.10
2018-01-30T06:43:50.659Z,54.10
2018-01-30T06:46:18.570Z,54.10
2018-01-30T06:48:45.714Z,54.10
2018-01-30T06:51:12.933Z,54.20
2018-01-30T06:53:40.828Z,53.90
2018-01-30T06:56:08.009Z,53.90
2018-01-30T06:58:35.938Z,54.30
2018-01-30T07:01:03.084Z,54.30
2018-01-30T07:03:31.102Z,54.10
2018-01-30T07:05:58.237Z,54.10
2018-01-30T07:08:25.383Z,54.00
2018-01-30T07:10:52.513Z,54.30
2018-01-30T07:13:19.645Z,54.30
2018-01-30T07:15:47.558Z,54.20
2018-01-30T07:18:14.724Z,54.20
2018-01-30T07:20:41.871Z,54.20
2018-01-30T07:23:09.020Z,54.10
2018-01-30T07:25:36.160Z,54.10
2018-01-30T07:28:03.332Z,54.10
2018-01-30T07:30:30.537Z,54.10
2018-01-30T07:32:57.680Z,54.20
2018-01-30T07:35:25.643Z,54.20
2018-01-30T07:37:53.592Z,54.10
2018-01-30T07:40:20.729Z,54.10
2018-01-30T07:42:47.879Z,54.00
2018-01-30T07:45:15.021Z,54.00
2018-01-30T07:47:42.161Z,53.80
2018-01-30T07:50:09.363Z,53.60
2018-01-30T07:52:37.279Z,53.40
2018-01-30T07:55:04.421Z,53.30
2018-01-30T07:57:31.550Z,53.50
2018-01-30T07:59:59.449Z,53.70
2018-01-30T08:02:26.581Z,53.70
2018-01-30T08:04:53.716Z,53.50
2018-01-30T08:07:21.636Z,53.70
2018-01-30T08:09:48.768Z,53.70
2018-01-30T08:12:15.921Z,53.60
2018-01-30T08:14:43.053Z,53.70
2018-01-30T08:17:10.194Z,53.70
2018-01-30T08:19:37.327Z,53.90
2018-01-30T08:22:05.250Z,53.90
2018-01-30T08:24:32.412Z,53.80
2018-01-30T08:26:59.550Z,53.80
2018-01-30T08:29:27.533Z,53.90
2018-01-30T08:31:55.437Z,53.90
2018-01-30T08:34:23.341Z,53.80
2018-01-30T08:36:50.485Z,53.80
2018-01-30T08:39:17.624Z,54.10
2018-01-30T08:41:44.778Z,53.90
2018-01-30T08:44:11.905Z,54.00
2018-01-30T08:46:39.810Z,54.10
2018-01-30T08:49:06.991Z,54.00
2018-01-30T08:51:34.121Z,54.00
2018-01-30T08:54:01.257Z,54.10
2018-01-30T08:56:28.389Z,54.20
2018-01-30T08:58:56.293Z,54.20
2018-01-30T09:01:23.435Z,54.20
2018-01-30T09:03:50.605Z,54.10
2018-01-30T09:06:17.746Z,54.20
2018-01-30T09:08:44.914Z,54.10
2018-01-30T09:11:12.051Z,54.00
2018-01-30T09:13:39.216Z,54.00
2018-01-30T09:16:06.390Z,54.00
2018-01-30T09:18:33.523Z,53.80
2018-01-30T09:21:00.693Z,53.60
2018-01-30T09:23:27.823Z,53.40
2018-01-30T09:25:55.006Z,53.10
2018-01-30T09:28:22.908Z,53.20
2018-01-30T09:30:50.074Z,53.20
2018-01-30T09:33:17.215Z,53.10
2018-01-30T09:35:44.381Z,53.20
2018-01-30T09:38:12.499Z,53.40
2018-01-30T09:40:40.411Z,53.60
2018-01-30T09:43:08.574Z,53.60
2018-01-30T09:45:35.709Z,53.60
2018-01-30T09:48:03.649Z,53.50
2018-01-30T09:50:30.816Z,53.50
2018-01-30T09:52:58.723Z,54.30
2018-01-30T09:55:25.892Z,53.60
2018-01-30T09:57:53.073Z,53.70
2018-01-30T10:00:20.205Z,53.60
2018-01-30T10:02:47.364Z,53.70
2018-01-30T10:05:14.493Z,53.80
2018-01-30T10:07:42.084Z,53.60
2018-01-30T10:10:09.221Z,53.70
2018-01-30T10:12:36.389Z,53.70
2018-01-30T10:15:03.520Z,53.80
2018-01-30T10:17:30.689Z,53.90
2018-01-30T10:19:57.873Z,53.80
2018-01-30T10:22:25.004Z,53.80
2018-01-30T10:24:52.217Z,53.80
2018-01-30T10:27:19.356Z,53.70
2018-01-30T10:29:46.486Z,53.60
2018-01-30T10:32:13.620Z,53.40
2018-01-30T10:34:41.533Z,53.10
2018-01-30T10:37:08.713Z,53.00
2018-01-30T10:39:35.892Z,53.50
2018-01-30T10:42:03.100Z,52.80
2018-01-30T10:44:30.277Z,52.90
2018-01-30T10:46:58.217Z,53.30
2018-01-30T10:49:25.504Z,53.20
2018-01-30T10:51:53.434Z,53.30
2018-01-30T10:54:21.388Z,53.20
2018-01-30T10:56:48.521Z,53.20
2018-01-30T10:59:15.751Z,53.20
2018-01-30T11:01:42.926Z,53.30
2018-01-30T11:04:10.233Z,53.50
2018-01-30T11:06:37.772Z,53.40
2018-01-30T11:09:04.940Z,53.30
2018-01-30T11:11:32.068Z,53.40
2018-01-30T11:13:59.969Z,53.30
2018-01-30T11:16:28.004Z,53.50
2018-01-30T11:18:55.174Z,53.40
2018-01-30T11:21:22.304Z,53.30
2018-01-30T11:23:50.015Z,53.50
2018-01-30T11:26:18.704Z,53.90
2018-01-30T11:28:46.650Z,53.10
2018-01-30T11:31:13.862Z,53.60
2018-01-30T11:33:40.992Z,53.60
2018-01-30T11:36:08.893Z,53.60
2018-01-30T11:38:36.332Z,53.50
2018-01-30T11:41:04.020Z,53.60
2018-01-30T11:43:31.217Z,53.70
2018-01-30T11:45:59.136Z,53.80
2018-01-30T11:48:26.397Z,53.80
2018-01-30T11:50:53.972Z,53.90
2018-01-30T11:53:21.911Z,53.80
2018-01-30T11:55:49.053Z,53.90
2018-01-30T11:58:17.121Z,53.80
2018-01-30T12:00:44.264Z,54.00
2018-01-30T12:03:12.185Z,53.90
2018-01-30T12:05:39.356Z,53.90
2018-01-30T12:08:07.318Z,54.00
2018-01-30T12:10:34.491Z,54.00
2018-01-30T12:13:03.369Z,54.00
2018-01-30T12:15:30.501Z,53.90
2018-01-30T12:17:57.635Z,53.80
2018-01-30T12:20:24.778Z,53.90
2018-01-30T12:22:52.358Z,54.00
2018-01-30T12:25:19.565Z,54.00
2018-01-30T12:27:47.561Z,53.90
2018-01-30T12:30:14.686Z,54.00
2018-01-30T12:32:42.561Z,54.10
2018-01-30T12:35:09.689Z,54.00
2018-01-30T12:37:37.592Z,54.00
2018-01-30T12:40:11.161Z,54.00
2018-01-30T12:42:38.328Z,54.10
2018-01-30T12:45:05.464Z,54.10
2018-01-30T12:47:33.356Z,54.00
2018-01-30T12:50:00.525Z,53.90
2018-01-30T12:52:27.664Z,53.70
2018-01-30T12:54:54.830Z,53.50
2018-01-30T12:57:21.966Z,53.50
2018-01-30T12:59:49.100Z,53.50
2018-01-30T13:02:16.271Z,53.50
2018-01-30T13:04:43.429Z,53.40
2018-01-30T13:07:10.598Z,53.60
2018-01-30T13:09:37.732Z,53.40
2018-01-30T13:12:04.900Z,53.50
2018-01-30T13:14:32.029Z,53.50
2018-01-30T13:16:59.162Z,53.50
2018-01-30T13:19:26.290Z,53.50
2018-01-30T13:21:54.196Z,53.60
2018-01-30T13:24:21.366Z,53.60
2018-01-30T13:26:48.497Z,53.70
2018-01-30T13:29:15.633Z,53.60
2018-01-30T13:31:42.761Z,53.60
2018-01-30T13:34:10.689Z,53.90
2018-01-30T13:36:37.817Z,53.70
2018-01-30T13:39:04.955Z,53.70
2018-01-30T13:41:32.125Z,53.60
2018-01-30T13:43:59.267Z,53.60
2018-01-30T13:46:26.392Z,53.50
2018-01-30T13:48:54.333Z,53.60
2018-01-30T13:51:21.470Z,53.60
2018-01-30T13:53:48.641Z,53.60
2018-01-30T13:56:15.786Z,53.70
2018-01-30T13:58:42.953Z,53.50
2018-01-30T14:01:10.890Z,53.70
2018-01-30T14:03:38.029Z,53.60
2018-01-30T14:06:05.973Z,53.70
2018-01-30T14:08:33.146Z,53.70
2018-01-30T14:11:00.289Z,53.60
2018-01-30T14:13:27.457Z,53.60
2018-01-30T14:15:54.620Z,53.60
2018-01-30T14:18:21.756Z,53.70
2018-01-30T14:20:48.933Z,53.60
2018-01-30T14:23:16.100Z,53.60
2018-01-30T14:25:44.063Z,53.50
2018-01-30T14:28:11.962Z,53.70
2018-01-30T14:30:39.096Z,53.60
2018-01-30T14:33:06.997Z,53.50
2018-01-30T14:35:34.172Z,53.50
2018-01-30T14:38:01.344Z,53.60
2018-01-30T14:40:28.561Z,53.50
2018-01-30T14:42:55.733Z,53.40
2018-01-30T14:45:22.900Z,53.40
2018-01-30T14:47:50.077Z,53.50
2018-01-30T14:50:18.028Z,53.40
2018-01-30T14:52:45.932Z,53.10
2018-01-30T14:55:13.097Z,53.50
2018-01-30T14:57:40.276Z,53.40
2018-01-30T15:00:07.413Z,53.40
2018-01-30T15:02:34.587Z,53.40
2018-01-30T15:05:01.718Z,53.20
2018-01-30T15:07:28.881Z,53.40
2018-01-30T15:09:56.018Z,53.20
2018-01-30T15:12:23.153Z,53.30
2018-01-30T15:14:50.285Z,52.90
2018-01-30T15:17:17.421Z,52.90
2018-01-30T15:19:45.319Z,52.90
2018-01-30T15:22:12.448Z,52.90
2018-01-30T15:24:39.617Z,52.80
2018-01-30T15:27:06.749Z,52.90
2018-01-30T15:29:33.930Z,53.10
2018-01-30T15:32:01.061Z,53.10
2018-01-30T15:34:28.257Z,53.20
2018-01-30T15:36:55.393Z,53.10
2018-01-30T15:39:22.528Z,53.10
2018-01-30T15:41:49.661Z,53.10
2018-01-30T15:44:16.793Z,53.00
2018-01-30T15:46:44.690Z,53.00
2018-01-30T15:49:11.820Z,53.10
2018-01-30T15:51:38.949Z,53.30
2018-01-30T15:54:06.850Z,54.00
2018-01-30T15:56:33.980Z,53.20
2018-01-30T15:59:01.887Z,53.10
2018-01-30T16:01:29.057Z,53.10
2018-01-30T16:03:56.193Z,53.10
2018-01-30T16:06:23.408Z,53.20
2018-01-30T16:08:51.313Z,53.30
2018-01-30T16:11:19.218Z,53.20
2018-01-30T16:13:46.353Z,53.20
2018-01-30T16:16:13.485Z,53.40
2018-01-30T16:18:40.629Z,53.20
2018-01-30T16:21:07.761Z,53.20
2018-01-30T16:23:34.898Z,53.10
2018-01-30T16:26:02.845Z,53.20
2018-01-30T16:28:29.972Z,53.10
2018-01-30T16:30:57.105Z,53.10
2018-01-30T16:33:24.243Z,53.20
2018-01-30T16:35:51.409Z,53.30
2018-01-30T16:38:19.550Z,53.10
2018-01-30T16:40:46.741Z,53.00
2018-01-30T16:43:14.636Z,53.10
2018-01-30T16:45:41.761Z,53.10
2018-01-30T16:48:08.898Z,53.20
2018-01-30T16:50:36.038Z,53.20
2018-01-30T16:53:03.176Z,53.20
2018-01-30T16:55:30.306Z,53.00
2018-01-30T16:57:58.242Z,53.00
2018-01-30T17:00:25.377Z,53.00
2018-01-30T17:02:52.509Z,53.10
2018-01-30T17:05:19.644Z,53.00
2018-01-30T17:07:46.770Z,53.10
2018-01-30T17:10:14.705Z,53.10
2018-01-30T17:12:42.614Z,53.20
2018-01-30T17:15:11.472Z,53.10
2018-01-30T17:17:38.604Z,53.10
2018-01-30T17:20:05.774Z,53.00
2018-01-30T17:22:32.920Z,52.90
2018-01-30T17:25:00.825Z,52.30
2018-01-30T17:27:28.753Z,51.30
2018-01-30T17:29:55.890Z,51.30
2018-01-30T17:32:23.061Z,50.80
2018-01-30T17:34:50.229Z,50.90
2018-01-30T17:37:17.360Z,50.20
2018-01-30T17:39:44.544Z,50.10
2018-01-30T17:42:13.242Z,50.00
2018-01-30T17:44:41.176Z,50.00
2018-01-30T17:47:09.077Z,49.60
2018-01-30T17:49:37.029Z,49.40
2018-01-30T17:52:04.181Z,49.30
2018-01-30T17:54:31.316Z,49.40
2018-01-30T17:56:58.453Z,50.30
2018-01-30T17:59:25.590Z,50.40
2018-01-30T18:01:52.734Z,50.20
2018-01-30T18:04:19.905Z,50.20
2018-01-30T18:06:47.045Z,50.20
2018-01-30T18:09:14.216Z,50.40
2018-01-30T18:11:41.380Z,50.90
2018-01-30T18:14:08.514Z,50.20
2018-01-30T18:16:36.448Z,50.20
2018-01-30T18:19:03.585Z,50.20
2018-01-30T18:21:31.529Z,50.50
2018-01-30T18:23:58.721Z,50.50
2018-01-30T18:26:26.416Z,50.80
2018-01-30T18:28:53.557Z,50.90
2018-01-30T18:31:20.696Z,50.60
2018-01-30T18:33:47.902Z,50.80
2018-01-30T18:36:15.814Z,51.20
2018-01-30T18:38:42.972Z,51.10
2018-01-30T18:41:10.106Z,51.10
2018-01-30T18:43:37.287Z,51.20
2018-01-30T18:46:04.428Z,51.30
2018-01-30T18:48:31.560Z,51.20
2018-01-30T18:50:58.701Z,51.30
2018-01-30T18:53:25.837Z,51.40
2018-01-30T18:55:53.738Z,51.50
2018-01-30T18:58:20.875Z,51.50
2018-01-30T19:00:48.004Z,51.60
2018-01-30T19:03:15.908Z,51.90
2018-01-30T19:05:43.093Z,51.90
2018-01-30T19:08:10.229Z,51.40
2018-01-30T19:10:37.364Z,51.70
2018-01-30T19:13:04.496Z,51.70
2018-01-30T19:15:31.629Z,51.80
2018-01-30T19:17:59.529Z,51.60
2018-01-30T19:20:26.668Z,51.60
2018-01-30T19:22:53.834Z,51.50
2018-01-30T19:25:20.996Z,51.40
2018-01-30T19:27:48.190Z,51.40
2018-01-30T19:30:16.101Z,51.60
2018-01-30T19:32:43.234Z,51.50
2018-01-30T19:35:10.365Z,51.80
2018-01-30T19:37:38.265Z,51.80
2018-01-30T19:40:05.401Z,51.80
2018-01-30T19:42:32.535Z,52.10
2018-01-30T19:45:00.440Z,51.40
2018-01-30T19:47:27.578Z,51.80
2018-01-30T19:49:54.762Z,52.00
2018-01-30T19:52:22.661Z,51.90
2018-01-30T19:54:49.832Z,51.80
2018-01-30T19:57:17.741Z,52.00
2018-01-30T19:59:44.884Z,52.00
2018-01-30T20:02:12.023Z,51.80
2018-01-30T20:04:39.926Z,51.90
2018-01-30T20:07:10.878Z,51.90
2018-01-30T20:09:40.562Z,51.80
2018-01-30T20:12:10.860Z,52.00
2018-01-30T20:14:40.318Z,52.00
2018-01-30T20:17:08.653Z,52.00
2018-01-30T20:19:36.682Z,52.00
2018-01-30T20:22:13.693Z,51.80
2018-01-30T20:27:47.088Z,52.10
2018-01-30T20:30:14.402Z,51.30
2018-01-30T20:32:42.784Z,51.50
2018-01-30T20:35:09.921Z,51.20
2018-01-30T20:37:37.937Z,51.40
2018-01-30T20:40:05.140Z,51.20
2018-01-30T20:42:32.324Z,51.20
2018-01-30T20:44:59.468Z,51.30
2018-01-30T20:47:26.606Z,51.20
2018-01-30T20:49:53.795Z,51.30
2018-01-30T20:52:23.494Z,51.40
2018-01-30T20:54:53.558Z,51.20
2018-01-30T20:57:24.356Z,51.30
2018-01-30T20:59:55.803Z,52.00
2018-01-30T21:02:25.007Z,52.20
2018-01-30T21:04:54.766Z,51.80
2018-01-30T21:07:23.242Z,51.80
2018-01-30T21:09:53.466Z,52.20
2018-01-30T21:12:20.993Z,52.20
2018-01-30T21:14:48.565Z,52.00
2018-01-30T21:17:16.990Z,52.00
2018-01-30T21:19:44.150Z,51.90
2018-01-30T21:22:11.288Z,52.10
2018-01-30T21:24:38.437Z,52.00
2018-01-30T21:27:05.580Z,51.80
2018-01-30T21:29:32.713Z,51.80
2018-01-30T21:31:59.849Z,51.70
2018-01-30T21:34:27.810Z,51.90
2018-01-30T21:36:54.965Z,51.90
2018-01-30T21:39:22.994Z,51.40
2018-01-30T21:41:50.244Z,51.30
2018-01-30T21:44:17.393Z,51.40
2018-01-30T21:46:44.612Z,51.40
2018-01-30T21:49:11.813Z,51.30
2018-01-30T21:51:38.951Z,51.20
2018-01-30T21:54:06.143Z,51.20
2018-01-30T21:56:34.052Z,51.50
2018-01-30T21:59:01.184Z,51.10
2018-01-30T22:01:28.316Z,51.10
2018-01-30T22:03:56.224Z,51.10
2018-01-30T22:06:23.365Z,51.10
2018-01-30T22:08:50.516Z,50.90
2018-01-30T22:11:17.738Z,50.80
2018-01-30T22:13:45.636Z,51.10
2018-01-30T22:16:12.764Z,50.70
2018-01-30T22:18:40.669Z,50.60
2018-01-30T22:21:07.801Z,50.50
2018-01-30T22:23:34.936Z,50.50
2018-01-30T22:26:02.841Z,50.70
2018-01-30T22:28:29.968Z,50.70
2018-01-30T22:30:57.097Z,50.70
2018-01-30T22:33:25.034Z,50.70
2018-01-30T22:35:52.160Z,50.70
2018-01-30T22:38:19.296Z,50.50
2018-01-30T22:40:46.832Z,50.30
2018-01-30T22:43:14.008Z,50.50
2018-01-30T22:45:41.178Z,50.20
